createdAt,value
2022-12-14T00:00:07.836Z,21.14
2022-12-14T00:02:44.334Z,21.03
2022-12-14T00:05:16.053Z,21.15
2022-12-14T00:07:47.060Z,21.19
2022-12-14T00:10:20.462Z,21.13
2022-12-14T00:12:48.279Z,21.21
2022-12-14T00:15:16.477Z,21.06
2022-12-14T00:17:51.557Z,21.08
2022-12-14T00:20:21.973Z,21.25
2022-12-14T00:22:50.095Z,21.24
2022-12-14T00:25:25.522Z,21.10
2022-12-14T00:27:53.329Z,21.06
2022-12-14T00:30:26.243Z,20.98
2022-12-14T00:32:58.954Z,20.97
2022-12-14T00:35:36.287Z,20.96
2022-12-14T00:38:04.090Z,20.91
2022-12-14T00:40:35.233Z,20.96
2022-12-14T00:43:02.761Z,21.04
2022-12-14T00:45:34.198Z,20.94
2022-12-14T00:48:02.431Z,21.08
2022-12-14T00:50:32.306Z,20.98
2022-12-14T00:53:00.238Z,21.05
2022-12-14T00:55:30.606Z,21.02
2022-12-14T00:58:04.311Z,20.95
2022-12-14T01:00:32.788Z,21.00
2022-12-14T01:03:00.562Z,20.91
2022-12-14T01:05:32.265Z,20.94
2022-12-14T01:08:03.043Z,20.89
2022-12-14T01:10:36.719Z,21.05
2022-12-14T01:13:04.305Z,21.04
2022-12-14T01:15:35.443Z,21.05
2022-12-14T01:18:03.309Z,21.06
2022-12-14T01:20:31.125Z,21.06
2022-12-14T01:22:59.009Z,21.03
2022-12-14T01:25:29.401Z,21.07
2022-12-14T01:28:00.277Z,21.01
2022-12-14T01:30:28.071Z,20.98
2022-12-14T01:32:55.733Z,21.15
2022-12-14T01:35:26.452Z,21.13
2022-12-14T01:37:54.031Z,21.28
2022-12-14T01:40:26.990Z,21.19
2022-12-14T01:42:55.219Z,21.22
2022-12-14T01:45:23.370Z,21.40
2022-12-14T01:48:02.783Z,21.31
2022-12-14T01:50:41.685Z,21.26
2022-12-14T01:53:19.535Z,21.20
2022-12-14T01:55:54.407Z,21.12
2022-12-14T01:58:24.625Z,21.27
2022-12-14T02:01:01.615Z,21.29
2022-12-14T02:03:37.065Z,21.14
2022-12-14T02:06:12.138Z,21.27
2022-12-14T02:08:44.232Z,21.52
2022-12-14T02:11:22.727Z,21.63
2022-12-14T02:13:54.449Z,21.55
2022-12-14T02:16:25.147Z,21.69
2022-12-14T02:18:52.997Z,21.79
2022-12-14T02:21:35.220Z,21.89
2022-12-14T02:25:00.387Z,21.94
2022-12-14T02:27:43.625Z,21.99
2022-12-14T02:30:17.730Z,21.97
2022-12-14T02:33:24.877Z,22.09
2022-12-14T02:36:21.342Z,22.29
2022-12-14T02:39:10.645Z,22.20
2022-12-14T02:41:56.396Z,22.19
2022-12-14T02:45:08.349Z,22.32
2022-12-14T02:47:57.234Z,22.31
2022-12-14T02:50:40.014Z,22.32
2022-12-14T02:53:24.985Z,22.38
2022-12-14T02:55:57.328Z,22.46
2022-12-14T02:58:33.430Z,22.56
2022-12-14T03:01:04.976Z,22.70
2022-12-14T03:03:35.250Z,22.66
2022-12-14T03:06:14.632Z,22.66
2022-12-14T03:08:49.929Z,22.72
2022-12-14T03:11:22.619Z,22.64
2022-12-14T03:14:03.341Z,22.68
2022-12-14T03:16:44.826Z,22.53
2022-12-14T03:19:25.844Z,22.38
2022-12-14T03:22:01.500Z,22.15
2022-12-14T03:24:38.507Z,21.91
2022-12-14T03:27:19.313Z,21.75
2022-12-14T03:29:58.653Z,21.63
2022-12-14T03:32:30.970Z,21.58
2022-12-14T03:35:04.545Z,21.51
2022-12-14T03:37:51.429Z,21.41
2022-12-14T03:40:28.940Z,21.41
2022-12-14T03:43:02.611Z,21.45
2022-12-14T03:45:32.791Z,21.42
2022-12-14T03:48:14.331Z,21.57
2022-12-14T03:50:55.521Z,21.47
2022-12-14T03:53:32.995Z,21.41
2022-12-14T03:56:12.938Z,21.30
2022-12-14T03:58:53.816Z,21.51
2022-12-14T04:01:30.769Z,21.31
2022-12-14T04:04:07.451Z,21.41
2022-12-14T04:06:49.900Z,21.33
2022-12-14T04:09:25.849Z,21.40
2022-12-14T04:12:26.651Z,21.50
2022-12-14T04:15:31.966Z,21.53
2022-12-14T04:18:31.646Z,21.48
2022-12-14T04:21:20.071Z,21.38
2022-12-14T04:24:15.807Z,21.34
2022-12-14T04:26:53.107Z,21.38
2022-12-14T04:29:51.207Z,21.28
2022-12-14T04:32:42.541Z,21.30
2022-12-14T04:35:34.566Z,21.19
2022-12-14T04:38:19.912Z,21.28
2022-12-14T04:40:56.114Z,21.31
2022-12-14T04:43:29.551Z,21.21
2022-12-14T04:46:09.057Z,21.33
2022-12-14T04:48:39.970Z,21.21
2022-12-14T04:51:14.671Z,21.35
2022-12-14T04:53:45.424Z,21.23
2022-12-14T04:56:25.982Z,21.31
2022-12-14T04:58:59.645Z,21.37
2022-12-14T05:01:33.290Z,21.29
2022-12-14T05:04:21.695Z,21.25
2022-12-14T05:07:25.152Z,21.13
2022-12-14T05:09:59.829Z,21.30
2022-12-14T05:12:38.616Z,21.43
2022-12-14T05:15:17.756Z,21.35
2022-12-14T05:17:48.135Z,21.24
2022-12-14T05:20:19.609Z,21.34
2022-12-14T05:22:50.759Z,21.40
2022-12-14T05:25:24.480Z,21.35
2022-12-14T05:27:52.025Z,21.21
2022-12-14T05:30:20.837Z,21.25
2022-12-14T05:32:51.198Z,21.24
2022-12-14T05:35:19.233Z,21.16
2022-12-14T05:37:52.362Z,21.20
2022-12-14T05:40:25.552Z,21.08
2022-12-14T05:43:13.467Z,21.10
2022-12-14T05:45:41.357Z,21.23
2022-12-14T05:48:11.723Z,21.27
2022-12-14T05:50:42.257Z,21.32
2022-12-14T05:53:17.724Z,21.49
2022-12-14T05:55:50.335Z,21.46
2022-12-14T05:58:18.652Z,21.56
2022-12-14T06:00:47.672Z,21.62
2022-12-14T06:03:18.535Z,21.58
2022-12-14T06:05:48.943Z,21.34
2022-12-14T06:08:19.736Z,21.41
2022-12-14T06:10:53.259Z,21.40
2022-12-14T06:13:28.089Z,21.27
2022-12-14T06:15:58.667Z,21.33
2022-12-14T06:18:29.693Z,21.15
2022-12-14T06:21:01.877Z,21.24
2022-12-14T06:23:31.152Z,21.32
2022-12-14T06:25:58.927Z,21.27
2022-12-14T06:28:30.798Z,21.22
2022-12-14T06:30:59.055Z,21.21
2022-12-14T06:33:27.496Z,21.22
2022-12-14T06:35:58.574Z,21.16
2022-12-14T06:38:28.905Z,21.26
2022-12-14T06:40:56.524Z,21.31
2022-12-14T06:43:30.079Z,21.33
2022-12-14T06:46:03.200Z,21.38
2022-12-14T06:48:33.786Z,21.40
2022-12-14T06:51:06.524Z,21.48
2022-12-14T06:53:35.639Z,21.49
2022-12-14T06:56:14.385Z,21.31
2022-12-14T06:58:45.798Z,21.43
2022-12-14T07:01:25.569Z,21.43
2022-12-14T07:03:59.842Z,21.23
2022-12-14T07:06:41.206Z,21.00
2022-12-14T07:09:14.251Z,21.09
2022-12-14T07:11:43.849Z,20.98
2022-12-14T07:14:16.808Z,20.98
2022-12-14T07:16:53.775Z,20.97
2022-12-14T07:19:30.609Z,21.10
2022-12-14T07:22:04.282Z,21.09
2022-12-14T07:24:37.996Z,21.28
2022-12-14T07:27:12.462Z,21.65
2022-12-14T07:29:48.911Z,21.59
2022-12-14T07:32:22.964Z,21.70
2022-12-14T07:34:59.395Z,21.76
2022-12-14T07:37:35.891Z,21.67
2022-12-14T07:40:12.690Z,21.68
2022-12-14T07:42:51.614Z,21.82
2022-12-14T07:45:30.423Z,21.88
2022-12-14T07:48:16.826Z,21.86
2022-12-14T07:50:52.337Z,21.79
2022-12-14T07:53:30.264Z,21.95
2022-12-14T07:56:30.713Z,22.06
2022-12-14T07:59:13.487Z,21.87
2022-12-14T08:01:57.311Z,22.05
2022-12-14T08:04:46.015Z,22.00
2022-12-14T08:07:22.963Z,21.97
2022-12-14T08:09:59.971Z,22.00
2022-12-14T08:12:45.967Z,22.11
2022-12-14T08:15:23.155Z,21.94
2022-12-14T08:17:59.282Z,21.94
2022-12-14T08:20:38.047Z,21.75
2022-12-14T08:23:18.641Z,21.61
2022-12-14T08:26:04.342Z,21.66
2022-12-14T08:28:40.207Z,21.74
2022-12-14T08:31:21.779Z,21.91
2022-12-14T08:33:57.631Z,21.85
2022-12-14T08:36:40.341Z,21.85
2022-12-14T08:39:17.139Z,21.95
2022-12-14T08:41:54.545Z,21.92
2022-12-14T08:44:31.873Z,21.83
2022-12-14T08:47:10.504Z,21.65
2022-12-14T08:49:46.130Z,21.77
2022-12-14T08:52:25.690Z,21.88
2022-12-14T08:55:01.551Z,22.02
2022-12-14T08:57:44.659Z,22.01
2022-12-14T09:00:26.180Z,22.04
2022-12-14T09:03:08.240Z,22.57
2022-12-14T09:05:36.365Z,23.24
2022-12-14T09:08:09.368Z,23.55
2022-12-14T09:10:38.861Z,23.79
2022-12-14T09:13:10.371Z,23.65
2022-12-14T09:15:41.624Z,23.45
2022-12-14T09:18:15.234Z,23.61
2022-12-14T09:20:45.984Z,23.93
2022-12-14T09:23:19.725Z,25.09
2022-12-14T09:25:47.741Z,24.97
2022-12-14T09:28:18.116Z,24.32
2022-12-14T09:30:46.915Z,23.94
2022-12-14T09:33:14.988Z,23.42
2022-12-14T09:35:47.559Z,23.01
2022-12-14T09:38:20.283Z,22.93
2022-12-14T09:40:57.830Z,22.87
2022-12-14T09:43:44.149Z,22.92
2022-12-14T09:46:45.460Z,23.17
2022-12-14T09:49:30.520Z,22.97
2022-12-14T09:52:10.451Z,22.77
2022-12-14T09:54:40.544Z,22.67
2022-12-14T09:57:19.270Z,22.65
2022-12-14T09:59:47.657Z,22.69
2022-12-14T10:02:31.800Z,22.53
2022-12-14T10:05:19.182Z,22.46
2022-12-14T10:08:09.022Z,22.45
2022-12-14T10:11:18.314Z,22.50
2022-12-14T10:14:16.863Z,22.49
2022-12-14T10:16:56.388Z,22.42
2022-12-14T10:19:45.144Z,22.40
2022-12-14T10:22:23.315Z,22.35
2022-12-14T10:25:09.981Z,22.34
2022-12-14T10:28:09.350Z,22.25
2022-12-14T10:30:33.182Z,22.31
2022-12-14T10:33:34.718Z,22.31
2022-12-14T10:36:02.629Z,22.28
2022-12-14T10:39:02.189Z,22.31
2022-12-14T10:41:49.644Z,22.26
2022-12-14T10:44:23.976Z,22.32
2022-12-14T10:47:05.064Z,22.40
2022-12-14T10:49:55.721Z,22.32
2022-12-14T10:52:34.540Z,22.32
2022-12-14T10:55:16.409Z,22.14
2022-12-14T10:57:49.309Z,22.54
2022-12-14T11:00:24.423Z,22.79
2022-12-14T11:02:58.253Z,22.73
2022-12-14T11:05:51.956Z,22.84
2022-12-14T11:08:41.528Z,22.75
2022-12-14T11:11:19.659Z,22.65
2022-12-14T11:14:06.263Z,22.71
2022-12-14T11:16:40.554Z,22.83
2022-12-14T11:19:22.716Z,22.76
2022-12-14T11:22:05.846Z,22.70
2022-12-14T11:24:42.928Z,22.50
2022-12-14T11:27:18.208Z,22.53
2022-12-14T11:29:56.555Z,22.45
2022-12-14T11:32:27.681Z,22.47
2022-12-14T11:35:02.809Z,22.59
2022-12-14T11:37:38.088Z,22.54
2022-12-14T11:40:07.153Z,22.54
2022-12-14T11:42:37.530Z,22.59
2022-12-14T11:45:32.135Z,23.31
2022-12-14T12:02:51.448Z,23.60
2022-12-14T12:06:04.744Z,23.11
2022-12-14T12:15:42.139Z,22.77
2022-12-14T12:29:07.378Z,22.67
2022-12-14T12:39:27.311Z,22.75
2022-12-14T12:46:21.293Z,22.36
2022-12-14T12:49:38.538Z,22.42
2022-12-14T12:59:35.100Z,22.79
2022-12-14T13:02:56.460Z,22.77
2022-12-14T13:06:07.861Z,22.60
2022-12-14T13:09:25.163Z,22.53
2022-12-14T13:12:56.367Z,22.55
2022-12-14T13:16:05.130Z,22.51
2022-12-14T13:19:40.907Z,22.66
2022-12-14T13:22:23.836Z,22.73
2022-12-14T13:24:59.251Z,22.65
2022-12-14T13:27:52.687Z,22.56
2022-12-14T13:30:38.875Z,22.62
2022-12-14T13:33:51.158Z,22.74
2022-12-14T13:36:31.304Z,22.92
2022-12-14T13:39:24.759Z,22.90
2022-12-14T13:42:07.133Z,22.67
2022-12-14T13:44:55.595Z,22.65
2022-12-14T13:47:40.974Z,22.66
2022-12-14T13:50:36.191Z,22.61
2022-12-14T13:53:18.958Z,22.77
2022-12-14T13:55:53.189Z,23.03
2022-12-14T13:58:39.024Z,23.12
2022-12-14T14:01:09.063Z,22.77
2022-12-14T14:03:40.180Z,22.82
2022-12-14T14:06:09.748Z,22.74
2022-12-14T14:08:45.366Z,22.64
2022-12-14T14:11:38.944Z,22.62
2022-12-14T14:14:40.213Z,22.82
2022-12-14T14:17:45.059Z,22.88
2022-12-14T14:20:34.960Z,22.65
2022-12-14T14:23:31.339Z,22.79
2022-12-14T14:26:29.575Z,22.61
2022-12-14T14:29:29.434Z,22.79
2022-12-14T14:32:02.968Z,22.67
2022-12-14T14:34:46.525Z,22.70
2022-12-14T14:37:51.974Z,22.91
2022-12-14T14:43:30.586Z,22.83
2022-12-14T14:46:08.178Z,22.83
2022-12-14T14:48:50.457Z,22.70
2022-12-14T14:51:35.277Z,22.61
2022-12-14T14:55:03.655Z,22.69
2022-12-14T14:57:55.386Z,22.97
2022-12-14T15:00:27.981Z,22.79
2022-12-14T15:03:01.812Z,22.64
2022-12-14T15:05:43.153Z,22.71
2022-12-14T15:08:37.107Z,22.74
2022-12-14T15:11:23.446Z,22.57
2022-12-14T15:13:59.710Z,22.60
2022-12-14T15:16:42.247Z,22.58
2022-12-14T15:19:30.450Z,22.51
2022-12-14T15:22:03.608Z,22.83
2022-12-14T15:24:42.876Z,22.82
2022-12-14T15:27:29.629Z,22.67
2022-12-14T15:30:12.766Z,22.74
2022-12-14T15:32:47.639Z,22.59
2022-12-14T15:35:22.017Z,22.57
2022-12-14T15:38:00.382Z,22.62
2022-12-14T15:40:35.526Z,22.65
2022-12-14T15:43:25.128Z,22.63
2022-12-14T15:46:04.185Z,22.91
2022-12-14T15:48:35.530Z,22.74
2022-12-14T15:51:13.746Z,22.58
2022-12-14T15:53:54.878Z,22.54
2022-12-14T15:56:29.336Z,22.58
2022-12-14T15:59:07.744Z,22.60
2022-12-14T16:01:51.732Z,22.55
2022-12-14T16:04:29.292Z,22.59
2022-12-14T16:07:08.639Z,22.53
2022-12-14T16:09:51.203Z,22.87
2022-12-14T16:12:45.167Z,22.94
2022-12-14T16:15:30.303Z,22.73
2022-12-14T16:18:04.765Z,22.79
2022-12-14T16:20:41.514Z,22.70
2022-12-14T16:23:18.096Z,22.64
2022-12-14T16:25:58.349Z,22.70
2022-12-14T16:28:29.541Z,22.77
2022-12-14T16:31:02.643Z,22.75
2022-12-14T16:33:35.275Z,22.90
2022-12-14T16:36:24.462Z,22.91
2022-12-14T16:39:04.083Z,22.98
2022-12-14T16:41:41.474Z,22.83
2022-12-14T16:44:39.730Z,22.89
2022-12-14T16:47:16.080Z,22.77
2022-12-14T16:50:00.249Z,22.71
2022-12-14T16:52:34.891Z,22.89
2022-12-14T16:55:18.888Z,22.80
2022-12-14T16:57:49.981Z,22.91
2022-12-14T17:00:29.841Z,22.81
2022-12-14T17:03:02.863Z,22.91
2022-12-14T17:05:42.100Z,22.95
2022-12-14T17:08:21.856Z,22.99
2022-12-14T17:10:53.251Z,23.00
2022-12-14T17:13:26.350Z,22.99
2022-12-14T17:16:04.623Z,23.04
2022-12-14T17:18:43.777Z,22.98
2022-12-14T17:21:22.806Z,22.95
2022-12-14T17:24:02.642Z,22.96
2022-12-14T17:26:35.495Z,22.82
2022-12-14T17:29:04.087Z,22.72
2022-12-14T17:31:47.614Z,22.83
2022-12-14T17:34:28.134Z,22.92
2022-12-14T17:37:15.089Z,22.94
2022-12-14T17:39:59.780Z,22.60
2022-12-14T17:42:34.032Z,22.76
2022-12-14T17:45:06.084Z,22.84
2022-12-14T17:47:34.598Z,22.70
2022-12-14T17:50:05.903Z,22.78
2022-12-14T17:52:41.123Z,22.77
2022-12-14T17:55:24.856Z,22.67
2022-12-14T17:57:53.670Z,22.63
2022-12-14T18:00:49.073Z,22.60
2022-12-14T18:03:20.934Z,22.74
2022-12-14T18:05:52.455Z,22.49
2022-12-14T18:08:23.544Z,22.53
2022-12-14T18:10:57.317Z,22.48
2022-12-14T18:13:31.735Z,22.64
2022-12-14T18:16:05.560Z,22.50
2022-12-14T18:18:35.924Z,22.33
2022-12-14T18:21:04.949Z,22.73
2022-12-14T18:23:38.433Z,22.67
2022-12-14T18:26:06.475Z,22.44
2022-12-14T18:28:37.299Z,22.42
2022-12-14T18:31:07.546Z,22.45
2022-12-14T18:33:39.277Z,22.44
2022-12-14T18:36:12.082Z,22.27
2022-12-14T18:38:40.217Z,22.16
2022-12-14T18:41:13.738Z,22.56
2022-12-14T18:43:44.053Z,22.75
2022-12-14T18:46:17.561Z,22.76
2022-12-14T18:48:50.834Z,22.62
2022-12-14T18:51:27.299Z,22.47
2022-12-14T18:53:59.788Z,22.55
2022-12-14T18:56:29.978Z,22.62
2022-12-14T18:59:03.345Z,22.32
2022-12-14T19:01:35.967Z,22.14
2022-12-14T19:04:09.520Z,22.50
2022-12-14T19:06:44.914Z,22.67
2022-12-14T19:09:14.785Z,22.73
2022-12-14T19:11:54.543Z,22.59
2022-12-14T19:14:22.364Z,22.56
2022-12-14T19:16:52.782Z,22.41
2022-12-14T19:19:26.588Z,22.30
2022-12-14T19:21:59.553Z,22.29
2022-12-14T19:24:29.912Z,22.14
2022-12-14T19:27:00.427Z,22.22
2022-12-14T19:29:28.349Z,22.31
2022-12-14T19:32:00.410Z,22.35
2022-12-14T19:34:32.820Z,22.24
2022-12-14T19:37:00.725Z,22.20
2022-12-14T19:39:30.912Z,22.18
2022-12-14T19:41:58.904Z,22.25
2022-12-14T19:44:29.229Z,22.27
2022-12-14T19:47:00.738Z,22.18
2022-12-14T19:49:33.315Z,22.30
2022-12-14T19:52:04.395Z,22.17
2022-12-14T19:54:34.883Z,22.47
2022-12-14T19:57:03.195Z,22.32
2022-12-14T19:59:36.268Z,22.40
2022-12-14T20:02:08.034Z,22.46
2022-12-14T20:04:41.915Z,22.39
2022-12-14T20:07:14.339Z,22.41
2022-12-14T20:09:44.721Z,22.28
2022-12-14T20:12:12.800Z,22.34
2022-12-14T20:14:44.686Z,22.14
2022-12-14T20:17:20.263Z,22.02
2022-12-14T20:19:48.843Z,22.18
2022-12-14T20:22:22.449Z,22.26
2022-12-14T20:24:52.741Z,22.40
2022-12-14T20:27:20.880Z,22.40
2022-12-14T20:29:52.056Z,22.28
2022-12-14T20:32:22.833Z,22.51
2022-12-14T20:34:53.721Z,22.51
2022-12-14T20:37:24.019Z,22.40
2022-12-14T20:39:57.249Z,22.08
2022-12-14T20:42:29.507Z,22.20
2022-12-14T20:45:07.067Z,22.40
2022-12-14T20:47:38.255Z,22.60
2022-12-14T20:50:06.799Z,22.64
2022-12-14T20:52:36.957Z,22.63
2022-12-14T20:55:08.058Z,22.50
2022-12-14T20:57:43.953Z,22.48
2022-12-14T21:00:15.600Z,22.26
2022-12-14T21:02:49.180Z,22.13
2022-12-14T21:05:17.429Z,22.31
2022-12-14T21:07:48.258Z,22.36
2022-12-14T21:10:18.949Z,22.52
2022-12-14T21:12:48.407Z,22.63
2022-12-14T21:15:19.431Z,22.59
2022-12-14T21:17:47.826Z,22.43
2022-12-14T21:20:18.923Z,22.26
2022-12-14T21:22:49.796Z,22.22
2022-12-14T21:25:20.171Z,22.09
2022-12-14T21:27:47.791Z,22.18
2022-12-14T21:30:18.524Z,22.46
2022-12-14T21:32:51.239Z,22.51
2022-12-14T21:35:22.161Z,22.51
2022-12-14T21:37:52.930Z,22.50
2022-12-14T21:40:39.808Z,22.61
2022-12-14T21:43:08.034Z,22.52
2022-12-14T21:45:38.906Z,22.34
2022-12-14T21:48:09.398Z,22.21
2022-12-14T21:50:42.430Z,22.25
2022-12-14T21:53:11.052Z,22.32
2022-12-14T21:55:51.173Z,22.56
2022-12-14T21:58:19.214Z,22.27
2022-12-14T22:00:49.449Z,22.25
2022-12-14T22:03:24.204Z,22.54
2022-12-14T22:05:55.184Z,22.72
2022-12-14T22:08:31.368Z,22.93
2022-12-14T22:11:03.609Z,22.78
2022-12-14T22:13:34.106Z,22.99
2022-12-14T22:16:06.457Z,23.24
2022-12-14T22:18:34.566Z,23.18
2022-12-14T22:21:05.608Z,23.19
2022-12-14T22:23:42.903Z,23.83
2022-12-14T22:26:17.281Z,23.90
2022-12-14T22:28:54.502Z,23.69
2022-12-14T22:31:22.989Z,23.84
2022-12-14T22:33:55.082Z,23.93
2022-12-14T22:36:26.531Z,23.74
2022-12-14T22:38:57.453Z,24.47
2022-12-14T22:41:30.733Z,24.17
2022-12-14T22:44:02.027Z,24.16
2022-12-14T22:46:34.236Z,24.28
2022-12-14T22:49:07.477Z,23.93
2022-12-14T22:51:38.596Z,23.96
2022-12-14T22:54:12.069Z,23.60
2022-12-14T22:56:47.733Z,23.32
2022-12-14T22:59:30.377Z,23.14
2022-12-14T23:01:59.506Z,23.24
2022-12-14T23:04:27.700Z,23.10
2022-12-14T23:06:57.420Z,23.15
2022-12-14T23:09:43.693Z,23.29
2022-12-14T23:12:32.748Z,23.32
2022-12-14T23:15:19.037Z,23.22
2022-12-14T23:18:05.303Z,22.85
2022-12-14T23:20:56.987Z,22.55
2022-12-14T23:23:44.216Z,22.55
2022-12-14T23:26:33.530Z,22.76
2022-12-14T23:29:20.479Z,22.92
2022-12-14T23:32:07.058Z,22.75
2022-12-14T23:34:56.578Z,22.75
2022-12-14T23:37:43.849Z,22.67
2022-12-14T23:40:30.017Z,22.70
2022-12-14T23:43:30.879Z,22.44
2022-12-14T23:46:18.377Z,22.44
2022-12-14T23:49:10.582Z,22.56
2022-12-14T23:52:02.761Z,22.73
2022-12-14T23:54:51.590Z,22.67
2022-12-14T23:57:40.400Z,22.68
